Private Wetterstation Sandau
Wetterdaten: Samstag, 31.03.2012
Datum Zeit Temp. A. Feuchte A. Luftdruck Regen Wind Richtung Richtung Taupunkt Windchill
31.03.2012 00:02 8,2 C 80 % 1008,1 hPa 0,0 l/m 20,9 km/h (4 Bft) NW 315 5,0 C 5,0 C
31.03.2012 00:07 8,1 C 80 % 1008,1 hPa 0,0 l/m 11,5 km/h (2 Bft) NW 315 4,9 C 6,1 C
31.03.2012 00:12 8,1 C 80 % 1008,1 hPa 0,0 l/m 22,7 km/h (4 Bft) W 270 4,9 C 4,7 C
31.03.2012 00:17 8,1 C 80 % 1008,1 hPa 0,0 l/m 21,6 km/h (4 Bft) W-NW 292 4,9 C 4,8 C
31.03.2012 00:22 7,9 C 80 % 1008,0 hPa 0,0 l/m 31,0 km/h (5 Bft) N-NW 337 4,7 C 3,8 C
31.03.2012 00:27 7,9 C 80 % 1007,9 hPa 0,0 l/m 29,5 km/h (5 Bft) W-NW 292 4,7 C 3,9 C
31.03.2012 00:32 7,9 C 80 % 1007,8 hPa 0,0 l/m 31,3 km/h (5 Bft) W 270 4,7 C 3,7 C
31.03.2012 00:37 7,9 C 80 % 1007,5 hPa 0,0 l/m 31,0 km/h (5 Bft) W-NW 292 4,7 C 3,8 C
31.03.2012 00:42 7,9 C 80 % 1007,4 hPa 0,0 l/m 27,0 km/h (4 Bft) W-NW 292 4,7 C 4,1 C
31.03.2012 00:47 7,8 C 80 % 1007,3 hPa 0,0 l/m 25,6 km/h (4 Bft) W-SW 247 4,6 C 4,1 C
31.03.2012 00:52 7,8 C 81 % 1007,2 hPa 0,0 l/m 19,8 km/h (3 Bft) N-NW 337 4,7 C 4,6 C
31.03.2012 00:57 7,8 C 81 % 1007,2 hPa 0,0 l/m 29,2 km/h (5 Bft) W-NW 292 4,7 C 3,8 C
31.03.2012 01:02 7,8 C 81 % 1007,2 hPa 0,0 l/m 27,4 km/h (4 Bft) W 270 4,7 C 3,9 C
31.03.2012 01:07 7,7 C 81 % 1007,2 hPa 0,0 l/m 18,7 km/h (3 Bft) W-NW 292 4,7 C 4,6 C
31.03.2012 01:12 7,6 C 81 % 1007,0 hPa 0,0 l/m 26,3 km/h (4 Bft) W-SW 247 4,6 C 3,7 C
31.03.2012 01:17 7,6 C 81 % 1006,9 hPa 0,0 l/m 21,6 km/h (4 Bft) NW 315 4,6 C 4,2 C
31.03.2012 01:22 7,6 C 80 % 1006,9 hPa 0,0 l/m 31,3 km/h (5 Bft) W-SW 247 4,4 C 3,3 C
31.03.2012 01:27 7,7 C 79 % 1006,9 hPa 0,0 l/m 24,8 km/h (4 Bft) W 270 4,3 C 4,0 C
31.03.2012 01:32 7,8 C 79 % 1006,8 hPa 0,0 l/m 15,8 km/h (3 Bft) NW 315 4,4 C 5,1 C
31.03.2012 01:37 7,8 C 78 % 1006,7 hPa 0,0 l/m 22,3 km/h (4 Bft) W 270 4,2 C 4,4 C
31.03.2012 01:42 7,8 C 78 % 1006,6 hPa 0,0 l/m 36,4 km/h (5 Bft) W 270 4,2 C 3,3 C
31.03.2012 01:47 7,8 C 78 % 1006,6 hPa 0,0 l/m 32,8 km/h (5 Bft) NW 315 4,2 C 3,5 C
31.03.2012 01:52 7,8 C 78 % 1006,4 hPa 0,0 l/m 19,1 km/h (3 Bft) W-NW 292 4,2 C 4,7 C
31.03.2012 01:57 7,8 C 78 % 1006,3 hPa 0,0 l/m 20,9 km/h (4 Bft) W-NW 292 4,2 C 4,5 C
31.03.2012 02:02 7,8 C 78 % 1006,2 hPa 0,0 l/m 16,6 km/h (3 Bft) W 270 4,2 C 5,0 C
31.03.2012 02:07 7,8 C 78 % 1006,2 hPa 0,0 l/m 28,1 km/h (4 Bft) W 270 4,2 C 3,9 C
31.03.2012 02:12 7,8 C 78 % 1006,1 hPa 0,0 l/m 18,4 km/h (3 Bft) W 270 4,2 C 4,8 C
31.03.2012 02:17 7,7 C 78 % 1006,2 hPa 0,0 l/m 19,4 km/h (3 Bft) NW 315 4,1 C 4,5 C
31.03.2012 02:22 7,6 C 78 % 1006,2 hPa 0,0 l/m 6,8 km/h (2 Bft) W-NW 292 4,0 C 6,5 C
31.03.2012 02:27 7,6 C 79 % 1006,1 hPa 0,0 l/m 25,2 km/h (4 Bft) W 270 4,2 C 3,8 C
31.03.2012 02:32 7,6 C 79 % 1006,1 hPa 0,0 l/m 22,3 km/h (4 Bft) W-NW 292 4,2 C 4,1 C
31.03.2012 02:37 7,6 C 79 % 1005,9 hPa 0,0 l/m 27,7 km/h (4 Bft) W 270 4,2 C 3,6 C
31.03.2012 02:42 7,5 C 79 % 1005,9 hPa 0,0 l/m 25,2 km/h (4 Bft) W-NW 292 4,1 C 3,7 C
31.03.2012 02:47 7,4 C 80 % 1005,5 hPa 0,0 l/m 18,0 km/h (3 Bft) W-SW 247 4,2 C 4,3 C
31.03.2012 02:52 7,4 C 80 % 1005,6 hPa 0,0 l/m 22,7 km/h (4 Bft) W 270 4,2 C 3,8 C
31.03.2012 02:57 7,4 C 80 % 1005,5 hPa 0,0 l/m 19,8 km/h (3 Bft) W-NW 292 4,2 C 4,1 C
31.03.2012 03:02 7,3 C 80 % 1005,4 hPa 0,0 l/m 16,9 km/h (3 Bft) W-NW 292 4,1 C 4,3 C
31.03.2012 03:07 7,3 C 79 % 1005,3 hPa 0,0 l/m 23,8 km/h (4 Bft) W 270 3,9 C 3,6 C
31.03.2012 03:12 7,4 C 79 % 1005,3 hPa 0,0 l/m 31,3 km/h (5 Bft) W-NW 292 4,0 C 3,1 C
31.03.2012 03:17 7,4 C 78 % 1005,2 hPa 0,0 l/m 13,7 km/h (3 Bft) NW 315 3,8 C 4,9 C
31.03.2012 03:22 7,4 C 79 % 1005,2 hPa 0,0 l/m 15,1 km/h (3 Bft) SO 135 4,0 C 4,7 C
31.03.2012 03:27 7,4 C 79 % 1005,2 hPa 0,0 l/m 19,1 km/h (3 Bft) W-NW 292 4,0 C 4,2 C
31.03.2012 03:32 7,3 C 79 % 1005,2 hPa 0,0 l/m 22,3 km/h (4 Bft) NW 315 3,9 C 3,7 C
31.03.2012 03:37 7,2 C 80 % 1005,1 hPa 0,0 l/m 25,6 km/h (4 Bft) W-NW 292 4,0 C 3,3 C
31.03.2012 03:42 7,2 C 81 % 1005,1 hPa 0,0 l/m 22,3 km/h (4 Bft) W 270 4,2 C 3,6 C
31.03.2012 03:47 7,1 C 81 % 1005,0 hPa 0,0 l/m 27,4 km/h (4 Bft) W-NW 292 4,1 C 3,0 C
31.03.2012 03:52 7,0 C 81 % 1004,9 hPa 0,0 l/m 19,8 km/h (3 Bft) NW 315 4,0 C 3,6 C
31.03.2012 03:57 7,0 C 81 % 1004,8 hPa 0,0 l/m 14,0 km/h (3 Bft) S 180 4,0 C 4,4 C
31.03.2012 04:02 6,9 C 81 % 1004,6 hPa 0,0 l/m 26,6 km/h (4 Bft) W 270 3,9 C 2,8 C
31.03.2012 04:07 6,9 C 80 % 1004,4 hPa 0,0 l/m 29,9 km/h (5 Bft) W-NW 292 3,7 C 2,5 C
31.03.2012 04:12 7,0 C 79 % 1004,4 hPa 0,0 l/m 17,6 km/h (3 Bft) W 270 3,6 C 3,9 C
31.03.2012 04:17 7,1 C 78 % 1004,3 hPa 0,0 l/m 21,6 km/h (4 Bft) W-SW 247 3,5 C 3,5 C
31.03.2012 04:22 7,2 C 77 % 1004,0 hPa 0,0 l/m 23,4 km/h (4 Bft) W 270 3,4 C 3,5 C
31.03.2012 04:27 7,3 C 77 % 1004,1 hPa 0,0 l/m 19,4 km/h (3 Bft) W-SW 247 3,5 C 4,0 C
31.03.2012 04:32 7,3 C 77 % 1004,1 hPa 0,0 l/m 33,8 km/h (5 Bft) W-NW 292 3,5 C 2,8 C
31.03.2012 04:37 7,3 C 77 % 1004,0 hPa 0,0 l/m 25,2 km/h (4 Bft) W-NW 292 3,5 C 3,5 C
31.03.2012 04:42 7,3 C 78 % 1004,0 hPa 0,0 l/m 24,5 km/h (4 Bft) W 270 3,7 C 3,5 C
31.03.2012 04:47 7,2 C 79 % 1004,0 hPa 0,0 l/m 19,4 km/h (3 Bft) NW 315 3,8 C 3,9 C
31.03.2012 04:52 7,2 C 79 % 1004,0 hPa 0,0 l/m 28,1 km/h (4 Bft) NW 315 3,8 C 3,1 C
31.03.2012 04:57 7,1 C 81 % 1004,1 hPa 0,0 l/m 25,6 km/h (4 Bft) W 270 4,1 C 3,2 C
31.03.2012 05:02 6,9 C 82 % 1004,0 hPa 0,0 l/m 24,5 km/h (4 Bft) W 270 4,0 C 3,0 C
31.03.2012 05:07 6,9 C 82 % 1003,8 hPa 0,0 l/m 15,5 km/h (3 Bft) W-NW 292 4,0 C 4,0 C
31.03.2012 05:12 6,9 C 82 % 1003,8 hPa 0,0 l/m 23,4 km/h (4 Bft) W 270 4,0 C 3,1 C
31.03.2012 05:17 6,8 C 83 % 1003,6 hPa 0,0 l/m 14,8 km/h (3 Bft) W-NW 292 4,1 C 4,0 C
31.03.2012 05:22 6,8 C 83 % 1003,3 hPa 0,0 l/m 10,8 km/h (2 Bft) W-NW 292 4,1 C 4,7 C
31.03.2012 05:27 6,8 C 83 % 1003,1 hPa 0,0 l/m 29,2 km/h (5 Bft) W 270 4,1 C 2,5 C
31.03.2012 05:32 6,7 C 83 % 1003,0 hPa 0,0 l/m 22,3 km/h (4 Bft) W-NW 292 4,0 C 3,0 C
31.03.2012 05:37 6,8 C 83 % 1003,1 hPa 0,0 l/m 29,9 km/h (5 Bft) W-SW 247 4,1 C 2,4 C
31.03.2012 05:42 6,8 C 83 % 1002,9 hPa 0,0 l/m 23,0 km/h (4 Bft) W 270 4,1 C 3,0 C
31.03.2012 05:47 6,8 C 84 % 1002,9 hPa 0,0 l/m 16,2 km/h (3 Bft) W-NW 292 4,3 C 3,8 C
31.03.2012 05:52 6,7 C 84 % 1002,7 hPa 0,0 l/m 21,2 km/h (4 Bft) W 270 4,2 C 3,1 C
31.03.2012 05:57 6,6 C 85 % 1002,6 hPa 0,0 l/m 25,6 km/h (4 Bft) W-NW 292 4,3 C 2,5 C
31.03.2012 06:02 6,6 C 85 % 1002,6 hPa 0,0 l/m 22,7 km/h (4 Bft) W 270 4,3 C 2,8 C
31.03.2012 06:07 6,6 C 85 % 1002,6 hPa 0,0 l/m 20,9 km/h (4 Bft) NW 315 4,3 C 3,0 C
31.03.2012 06:12 6,6 C 85 % 1002,6 hPa 0,0 l/m 25,6 km/h (4 Bft) W 270 4,3 C 2,5 C
31.03.2012 06:17 6,6 C 85 % 1002,6 hPa 0,0 l/m 22,7 km/h (4 Bft) W-NW 292 4,3 C 2,8 C
31.03.2012 06:22 6,6 C 85 % 1002,6 hPa 0,0 l/m 19,8 km/h (3 Bft) W-NW 292 4,3 C 3,1 C
31.03.2012 06:27 6,6 C 84 % 1002,4 hPa 0,0 l/m 15,5 km/h (3 Bft) W-NW 292 4,1 C 3,7 C
31.03.2012 06:32 6,6 C 83 % 1002,3 hPa 0,0 l/m 25,9 km/h (4 Bft) NW 315 3,9 C 2,5 C
31.03.2012 06:37 6,7 C 83 % 1002,2 hPa 0,0 l/m 31,7 km/h (5 Bft) W-NW 292 4,0 C 2,1 C
31.03.2012 06:42 6,8 C 82 % 1002,2 hPa 0,0 l/m 23,8 km/h (4 Bft) NW 315 3,9 C 2,9 C
31.03.2012 06:47 6,8 C 82 % 1002,2 hPa 0,0 l/m 26,6 km/h (4 Bft) W-NW 292 3,9 C 2,7 C
31.03.2012 06:52 6,8 C 82 % 1002,2 hPa 0,0 l/m 16,9 km/h (3 Bft) W-NW 292 3,9 C 3,7 C
31.03.2012 06:57 6,8 C 81 % 1002,1 hPa 0,0 l/m 31,0 km/h (5 Bft) W 270 3,8 C 2,3 C
31.03.2012 07:02 6,8 C 81 % 1002,2 hPa 0,0 l/m 15,8 km/h (3 Bft) W 270 3,8 C 3,9 C
31.03.2012 07:07 6,8 C 80 % 1002,3 hPa 0,0 l/m 26,6 km/h (4 Bft) W-SW 247 3,6 C 2,7 C
31.03.2012 07:12 6,8 C 80 % 1002,3 hPa 0,0 l/m 22,7 km/h (4 Bft) W 270 3,6 C 3,1 C
31.03.2012 07:17 6,9 C 79 % 1002,3 hPa 0,0 l/m 28,8 km/h (4 Bft) W-NW 292 3,5 C 2,6 C
31.03.2012 07:22 6,9 C 79 % 1002,2 hPa 0,0 l/m 20,9 km/h (4 Bft) N-NW 337 3,5 C 3,4 C
31.03.2012 07:27 6,9 C 79 % 1002,2 hPa 0,0 l/m 28,8 km/h (4 Bft) W-NW 292 3,5 C 2,6 C
31.03.2012 07:32 6,9 C 78 % 1002,2 hPa 0,0 l/m 22,7 km/h (4 Bft) W-NW 292 3,3 C 3,2 C
31.03.2012 07:37 6,9 C 78 % 1002,2 hPa 0,0 l/m 16,9 km/h (3 Bft) W 270 3,3 C 3,8 C
31.03.2012 07:42 6,9 C 78 % 1002,2 hPa 0,0 l/m 26,3 km/h (4 Bft) W-NW 292 3,3 C 2,8 C
31.03.2012 07:47 6,9 C 78 % 1002,0 hPa 0,0 l/m 18,0 km/h (3 Bft) W-NW 292 3,3 C 3,7 C
31.03.2012 07:52 6,9 C 78 % 1002,0 hPa 0,0 l/m 15,5 km/h (3 Bft) W-NW 292 3,3 C 4,0 C
31.03.2012 07:57 6,9 C 77 % 1001,9 hPa 0,0 l/m 31,0 km/h (5 Bft) W-NW 292 3,2 C 2,5 C
31.03.2012 08:02 6,9 C 78 % 1001,7 hPa 0,0 l/m 20,9 km/h (4 Bft) W-NW 292 3,3 C 3,4 C
31.03.2012 08:07 7,0 C 77 % 1001,6 hPa 0,0 l/m 20,5 km/h (4 Bft) W 270 3,2 C 3,5 C
31.03.2012 08:12 7,1 C 78 % 1001,6 hPa 0,0 l/m 19,8 km/h (3 Bft) W 270 3,5 C 3,7 C
31.03.2012 08:17 7,1 C 78 % 1001,5 hPa 0,0 l/m 26,6 km/h (4 Bft) W-NW 292 3,5 C 3,1 C
31.03.2012 08:22 7,1 C 78 % 1001,6 hPa 0,0 l/m 17,6 km/h (3 Bft) W-NW 292 3,5 C 4,0 C
31.03.2012 08:27 7,0 C 78 % 1001,7 hPa 0,0 l/m 31,7 km/h (5 Bft) W 270 3,4 C 2,5 C
31.03.2012 08:32 6,9 C 79 % 1001,9 hPa 0,0 l/m 18,0 km/h (3 Bft) W-SW 247 3,5 C 3,7 C
31.03.2012 08:37 6,8 C 79 % 1001,8 hPa 0,0 l/m 14,4 km/h (3 Bft) N-NW 337 3,4 C 4,1 C
31.03.2012 08:42 6,7 C 78 % 1002,0 hPa 0,0 l/m 11,9 km/h (2 Bft) W-NW 292 3,1 C 4,3 C
31.03.2012 08:47 6,6 C 78 % 1002,0 hPa 0,0 l/m 19,1 km/h (3 Bft) W-SW 247 3,0 C 3,2 C
31.03.2012 08:52 6,6 C 78 % 1001,9 hPa 0,0 l/m 15,8 km/h (3 Bft) W 270 3,0 C 3,6 C
31.03.2012 08:57 6,6 C 77 % 1001,9 hPa 0,0 l/m 16,9 km/h (3 Bft) W-NW 292 2,9 C 3,5 C
31.03.2012 09:02 6,8 C 76 % 1001,9 hPa 0,0 l/m 20,2 km/h (4 Bft) W-NW 292 2,9 C 3,3 C
31.03.2012 09:07 6,9 C 75 % 1001,9 hPa 0,0 l/m 20,9 km/h (4 Bft) NW 315 2,8 C 3,4 C
31.03.2012 09:12 6,9 C 74 % 1002,0 hPa 0,0 l/m 19,1 km/h (3 Bft) NW 315 2,6 C 3,6 C
31.03.2012 09:17 6,9 C 73 % 1002,1 hPa 0,0 l/m 18,4 km/h (3 Bft) NW 315 2,4 C 3,6 C
31.03.2012 09:22 6,9 C 72 % 1002,3 hPa 0,0 l/m 16,6 km/h (3 Bft) NO 45 2,2 C 3,9 C
31.03.2012 09:27 6,2 C 75 % 1002,4 hPa 0,0 l/m 16,2 km/h (3 Bft) N-NW 337 2,1 C 3,1 C
31.03.2012 09:32 5,6 C 78 % 1002,3 hPa 0,5 l/m 23,0 km/h (4 Bft) N-NW 337 2,1 C 1,5 C
31.03.2012 09:37 5,6 C 79 % 1002,5 hPa 0,0 l/m 20,9 km/h (4 Bft) O-NO 67 2,3 C 1,7 C
31.03.2012 09:42 5,5 C 80 % 1002,7 hPa 0,0 l/m 28,8 km/h (4 Bft) W-NW 292 2,3 C 0,8 C
31.03.2012 09:47 5,4 C 81 % 1002,8 hPa 0,0 l/m 30,6 km/h (5 Bft) NW 315 2,4 C 0,5 C
31.03.2012 09:52 5,2 C 81 % 1002,9 hPa 0,0 l/m 12,6 km/h (3 Bft) NO 45 2,2 C 2,4 C
31.03.2012 09:57 5,3 C 81 % 1002,8 hPa 0,0 l/m 25,6 km/h (4 Bft) N 360 2,3 C 0,8 C
31.03.2012 10:02 5,4 C 81 % 1002,8 hPa 0,0 l/m 28,8 km/h (4 Bft) W-NW 292 2,4 C 0,7 C
31.03.2012 10:07 5,5 C 79 % 1002,8 hPa 0,0 l/m 18,4 km/h (3 Bft) NW 315 2,2 C 1,9 C
31.03.2012 10:12 5,6 C 79 % 1002,8 hPa 0,0 l/m 19,4 km/h (3 Bft) N 360 2,3 C 1,9 C
31.03.2012 10:17 5,8 C 76 % 1002,9 hPa 0,0 l/m 23,4 km/h (4 Bft) N-NO 22 1,9 C 1,7 C
31.03.2012 10:22 5,9 C 76 % 1002,9 hPa 0,0 l/m 11,9 km/h (2 Bft) N 360 2,0 C 3,4 C
31.03.2012 10:27 5,9 C 75 % 1003,0 hPa 0,0 l/m 24,8 km/h (4 Bft) W 270 1,8 C 1,7 C
31.03.2012 10:32 5,8 C 73 % 1003,1 hPa 0,0 l/m 16,9 km/h (3 Bft) W-NW 292 1,3 C 2,5 C
31.03.2012 10:37 5,8 C 72 % 1003,1 hPa 0,0 l/m 12,2 km/h (2 Bft) N 360 1,2 C 3,2 C
31.03.2012 10:42 5,8 C 70 % 1003,2 hPa 0,0 l/m 12,6 km/h (3 Bft) NW 315 0,8 C 3,1 C
31.03.2012 10:47 5,9 C 69 % 1003,1 hPa 0,0 l/m 17,3 km/h (3 Bft) W-NW 292 0,7 C 2,5 C
31.03.2012 10:52 6,1 C 66 % 1003,3 hPa 0,0 l/m 10,1 km/h (2 Bft) N-NO 22 0,2 C 4,0 C
31.03.2012 10:57 6,3 C 65 % 1003,2 hPa 0,0 l/m 12,2 km/h (2 Bft) N-NW 337 0,2 C 3,8 C
31.03.2012 11:02 6,5 C 62 % 1003,2 hPa 0,0 l/m 23,4 km/h (4 Bft) N-NW 337 -0,2 C 2,6 C
31.03.2012 11:07 6,7 C 61 % 1003,2 hPa 0,0 l/m 7,2 km/h (2 Bft) N-NO 22 -0,3 C 5,3 C
31.03.2012 11:12 6,8 C 60 % 1003,2 hPa 0,0 l/m 11,2 km/h (2 Bft) S-SW 202 -0,4 C 4,6 C
31.03.2012 11:17 6,9 C 60 % 1003,3 hPa 0,0 l/m 24,1 km/h (4 Bft) W-NW 292 -0,3 C 3,0 C
31.03.2012 11:22 7,1 C 60 % 1003,6 hPa 0,0 l/m 19,1 km/h (3 Bft) W-NW 292 -0,1 C 3,8 C
31.03.2012 11:27 7,2 C 59 % 1003,5 hPa 0,0 l/m 18,7 km/h (3 Bft) W 270 -0,3 C 4,0 C
31.03.2012 11:32 7,2 C 58 % 1003,6 hPa 0,0 l/m 15,5 km/h (3 Bft) N-NW 337 -0,5 C 4,4 C
31.03.2012 11:37 7,2 C 57 % 1003,6 hPa 0,0 l/m 11,2 km/h (2 Bft) N 360 -0,7 C 5,1 C
31.03.2012 11:42 7,2 C 58 % 1003,7 hPa 0,0 l/m 16,6 km/h (3 Bft) W 270 -0,5 C 4,2 C
31.03.2012 11:47 7,2 C 57 % 1003,7 hPa 0,0 l/m 24,1 km/h (4 Bft) N 360 -0,7 C 3,4 C
31.03.2012 11:52 7,1 C 56 % 1003,7 hPa 0,0 l/m 16,2 km/h (3 Bft) N 360 -1,1 C 4,2 C
31.03.2012 11:57 6,9 C 56 % 1003,6 hPa 0,0 l/m 18,4 km/h (3 Bft) W 270 -1,3 C 3,6 C
31.03.2012 12:02 6,9 C 55 % 1003,8 hPa 0,0 l/m 17,3 km/h (3 Bft) N-NO 22 -1,5 C 3,8 C
31.03.2012 12:07 6,6 C 55 % 1003,9 hPa 0,0 l/m 23,0 km/h (4 Bft) W-NW 292 -1,8 C 2,8 C
31.03.2012 12:12 6,7 C 56 % 1003,9 hPa 0,0 l/m 12,6 km/h (3 Bft) NW 315 -1,4 C 4,2 C
31.03.2012 12:17 6,7 C 56 % 1003,8 hPa 0,0 l/m 10,4 km/h (2 Bft) W-NW 292 -1,4 C 4,6 C
31.03.2012 12:22 6,8 C 57 % 1004,1 hPa 0,0 l/m 18,7 km/h (3 Bft) N 360 -1,1 C 3,5 C
31.03.2012 12:27 6,7 C 56 % 1004,0 hPa 0,0 l/m 26,6 km/h (4 Bft) NW 315 -1,4 C 2,6 C
31.03.2012 12:32 6,8 C 57 % 1004,2 hPa 0,0 l/m 27,0 km/h (4 Bft) N 360 -1,1 C 2,6 C
31.03.2012 12:37 6,7 C 56 % 1004,3 hPa 0,0 l/m 15,8 km/h (3 Bft) N 360 -1,4 C 3,7 C
31.03.2012 12:42 6,6 C 56 % 1004,2 hPa 0,0 l/m 15,5 km/h (3 Bft) N-NO 22 -1,5 C 3,7 C
31.03.2012 12:47 6,6 C 57 % 1004,3 hPa 0,0 l/m 15,5 km/h (3 Bft) N-NW 337 -1,3 C 3,7 C
31.03.2012 12:52 6,9 C 57 % 1004,2 hPa 0,0 l/m 18,0 km/h (3 Bft) NW 315 -1,0 C 3,7 C
31.03.2012 12:57 7,1 C 57 % 1004,4 hPa 0,0 l/m 4,3 km/h (1 Bft) O-SO 112 -0,8 C 7,1 C
31.03.2012 13:02 7,2 C 57 % 1004,4 hPa 0,0 l/m 8,6 km/h (2 Bft) NW 315 -0,7 C 5,6 C
31.03.2012 13:07 7,3 C 57 % 1004,4 hPa 0,0 l/m 15,8 km/h (3 Bft) NO 45 -0,6 C 4,5 C
31.03.2012 13:12 7,3 C 57 % 1004,5 hPa 0,0 l/m 20,5 km/h (4 Bft) O-NO 67 -0,6 C 3,9 C
31.03.2012 13:17 7,4 C 58 % 1004,5 hPa 0,0 l/m 23,0 km/h (4 Bft) N-NW 337 -0,3 C 3,8 C
31.03.2012 13:22 7,6 C 59 % 1004,5 hPa 0,0 l/m 22,7 km/h (4 Bft) NW 315 0,1 C 4,1 C
31.03.2012 13:27 7,9 C 58 % 1004,8 hPa 0,0 l/m 24,5 km/h (4 Bft) N 360 0,2 C 4,3 C
31.03.2012 13:32 7,8 C 61 % 1005,2 hPa 0,0 l/m 21,2 km/h (4 Bft) N 360 0,8 C 4,5 C
31.03.2012 13:37 6,2 C 67 % 1005,4 hPa 0,5 l/m 9,4 km/h (2 Bft) N 360 0,5 C 4,2 C
31.03.2012 13:42 5,2 C 73 % 1005,4 hPa 0,0 l/m 13,7 km/h (3 Bft) O-SO 112 0,8 C 2,2 C
31.03.2012 13:47 5,2 C 77 % 1005,4 hPa 0,0 l/m 10,1 km/h (2 Bft) N 360 1,5 C 2,9 C
31.03.2012 13:52 5,5 C 77 % 1005,5 hPa 0,0 l/m 7,6 km/h (2 Bft) W-NW 292 1,8 C 3,8 C
31.03.2012 13:57 5,4 C 77 % 1005,7 hPa 0,0 l/m 18,0 km/h (3 Bft) O-NO 67 1,7 C 1,8 C
31.03.2012 14:02 5,4 C 76 % 1005,8 hPa 0,0 l/m 23,0 km/h (4 Bft) N-NO 22 1,5 C 1,2 C
31.03.2012 14:07 5,6 C 73 % 1005,9 hPa 0,0 l/m 17,3 km/h (3 Bft) O-NO 67 1,2 C 2,2 C
31.03.2012 14:12 5,9 C 71 % 1005,8 hPa 0,0 l/m 15,8 km/h (3 Bft) N-NO 22 1,1 C 2,7 C
31.03.2012 14:17 6,2 C 67 % 1005,9 hPa 0,0 l/m 18,7 km/h (3 Bft) NO 45 0,5 C 2,7 C
31.03.2012 14:22 6,4 C 67 % 1006,0 hPa 0,0 l/m 13,7 km/h (3 Bft) O-NO 67 0,7 C 3,7 C
31.03.2012 14:27 5,9 C 66 % 1006,1 hPa 0,0 l/m 17,6 km/h (3 Bft) N 360 0,0 C 2,5 C
31.03.2012 14:32 6,1 C 64 % 1006,1 hPa 0,0 l/m 15,8 km/h (3 Bft) NO 45 -0,2 C 3,0 C
31.03.2012 14:37 5,9 C 65 % 1006,6 hPa 0,0 l/m 17,6 km/h (3 Bft) O-NO 67 -0,2 C 2,5 C
31.03.2012 14:42 5,3 C 66 % 1006,8 hPa 0,0 l/m 12,6 km/h (3 Bft) N-NO 22 -0,5 C 2,5 C
31.03.2012 14:47 4,9 C 69 % 1006,8 hPa 0,0 l/m 16,9 km/h (3 Bft) N-NO 22 -0,3 C 1,3 C
31.03.2012 14:52 5,0 C 69 % 1007,1 hPa 0,0 l/m 11,2 km/h (2 Bft) NW 315 -0,2 C 2,4 C
31.03.2012 14:57 5,1 C 68 % 1007,2 hPa 0,0 l/m 18,0 km/h (3 Bft) W-NW 292 -0,3 C 1,4 C
31.03.2012 15:02 5,3 C 67 % 1007,2 hPa 0,0 l/m 23,0 km/h (4 Bft) NO 45 -0,3 C 1,1 C
31.03.2012 15:07 5,3 C 69 % 1007,3 hPa 0,0 l/m 19,4 km/h (3 Bft) N 360 0,1 C 1,5 C
31.03.2012 15:12 5,3 C 71 % 1007,3 hPa 0,0 l/m 15,1 km/h (3 Bft) NO 45 0,5 C 2,1 C
31.03.2012 15:17 5,1 C 71 % 1007,3 hPa 0,0 l/m 10,4 km/h (2 Bft) O-NO 67 0,3 C 2,7 C
31.03.2012 15:22 5,4 C 71 % 1007,2 hPa 0,0 l/m 8,3 km/h (2 Bft) N-NO 22 0,6 C 3,5 C
31.03.2012 15:27 5,8 C 69 % 1007,3 hPa 0,0 l/m 8,6 km/h (2 Bft) NO 45 0,6 C 3,9 C
31.03.2012 15:32 5,9 C 68 % 1007,3 hPa 0,0 l/m 17,6 km/h (3 Bft) N 360 0,5 C 2,5 C
31.03.2012 15:37 5,6 C 68 % 1008,1 hPa 0,0 l/m 25,9 km/h (4 Bft) N 360 0,2 C 1,2 C
31.03.2012 15:42 3,9 C 72 % 1008,1 hPa 0,0 l/m 28,1 km/h (4 Bft) O-NO 67 -0,7 C -1,2 C
31.03.2012 15:47 2,9 C 75 % 1007,9 hPa 0,0 l/m 19,1 km/h (3 Bft) N-NW 337 -1,1 C -1,5 C
31.03.2012 15:52 3,0 C 75 % 1007,9 hPa 0,0 l/m 13,7 km/h (3 Bft) N-NW 337 -1,0 C -0,5 C
31.03.2012 15:57 3,3 C 75 % 1008,0 hPa 0,0 l/m 11,5 km/h (2 Bft) NO 45 -0,7 C 0,3 C
31.03.2012 16:02 3,6 C 75 % 1008,0 hPa 0,0 l/m 10,8 km/h (2 Bft) N-NO 22 -0,4 C 0,8 C
31.03.2012 16:07 4,1 C 75 % 1007,9 hPa 0,0 l/m 14,4 km/h (3 Bft) NO 45 0,1 C 0,7 C
31.03.2012 16:12 4,5 C 73 % 1008,0 hPa 0,0 l/m 19,1 km/h (3 Bft) NO 45 0,1 C 0,5 C
31.03.2012 16:17 4,8 C 69 % 1008,0 hPa 0,0 l/m 27,4 km/h (4 Bft) NO 45 -0,4 C 0,0 C
31.03.2012 16:22 5,1 C 68 % 1008,0 hPa 0,0 l/m 17,3 km/h (3 Bft) N-NW 337 -0,3 C 1,5 C
31.03.2012 16:27 5,4 C 67 % 1008,0 hPa 0,0 l/m 20,9 km/h (4 Bft) N-NW 337 -0,2 C 1,5 C
31.03.2012 16:32 5,8 C 67 % 1008,0 hPa 0,0 l/m 20,9 km/h (4 Bft) W-NW 292 0,2 C 2,0 C
31.03.2012 16:37 6,0 C 65 % 1008,0 hPa 0,0 l/m 13,0 km/h (3 Bft) W-NW 292 -0,1 C 3,3 C
31.03.2012 16:42 6,1 C 62 % 1008,0 hPa 0,0 l/m 20,9 km/h (4 Bft) N-NW 337 -0,6 C 2,4 C
31.03.2012 16:47 6,0 C 62 % 1008,1 hPa 0,0 l/m 11,9 km/h (2 Bft) NO 45 -0,7 C 3,5 C
31.03.2012 16:52 6,1 C 59 % 1008,0 hPa 0,0 l/m 10,1 km/h (2 Bft) N 360 -1,3 C 4,0 C
31.03.2012 16:57 6,4 C 60 % 1008,0 hPa 0,0 l/m 19,1 km/h (3 Bft) N-NO 22 -0,8 C 2,9 C
31.03.2012 17:02 6,6 C 60 % 1008,1 hPa 0,0 l/m 8,3 km/h (2 Bft) SO 135 -0,6 C 4,9 C
31.03.2012 17:07 6,6 C 60 % 1008,2 hPa 0,0 l/m 11,9 km/h (2 Bft) W 270 -0,6 C 4,2 C
31.03.2012 17:12 6,7 C 59 % 1008,2 hPa 0,0 l/m 11,2 km/h (2 Bft) N-NW 337 -0,7 C 4,5 C
31.03.2012 17:17 6,7 C 58 % 1008,2 hPa 0,0 l/m 10,4 km/h (2 Bft) N-NW 337 -1,0 C 4,6 C
31.03.2012 17:22 6,8 C 58 % 1008,4 hPa 0,0 l/m 11,2 km/h (2 Bft) NW 315 -0,9 C 4,6 C
31.03.2012 17:27 6,8 C 58 % 1008,4 hPa 0,0 l/m 17,3 km/h (3 Bft) N-NW 337 -0,9 C 3,7 C
31.03.2012 17:32 6,9 C 55 % 1008,4 hPa 0,0 l/m 9,4 km/h (2 Bft) W-SW 247 -1,5 C 5,1 C
31.03.2012 17:37 6,9 C 53 % 1008,7 hPa 0,0 l/m 13,3 km/h (3 Bft) O-NO 67 -2,0 C 4,3 C
31.03.2012 17:42 6,5 C 53 % 1008,8 hPa 0,0 l/m 17,3 km/h (3 Bft) W 270 -2,4 C 3,3 C
31.03.2012 17:47 6,4 C 54 % 1008,9 hPa 0,0 l/m 27,7 km/h (4 Bft) NO 45 -2,2 C 2,1 C
31.03.2012 17:52 6,2 C 55 % 1009,1 hPa 0,0 l/m 24,1 km/h (4 Bft) N 360 -2,2 C 2,1 C
31.03.2012 17:57 6,1 C 54 % 1009,2 hPa 0,0 l/m 16,6 km/h (3 Bft) N-NW 337 -2,5 C 2,9 C
31.03.2012 18:02 6,2 C 54 % 1009,2 hPa 0,0 l/m 16,9 km/h (3 Bft) O-NO 67 -2,4 C 3,0 C
31.03.2012 18:07 6,3 C 53 % 1009,3 hPa 0,0 l/m 13,7 km/h (3 Bft) O-NO 67 -2,6 C 3,5 C
31.03.2012 18:12 6,2 C 52 % 1009,5 hPa 0,0 l/m 25,2 km/h (4 Bft) NO 45 -2,9 C 2,0 C
31.03.2012 18:17 6,1 C 53 % 1009,6 hPa 0,0 l/m 9,7 km/h (2 Bft) O-NO 67 -2,7 C 4,0 C
31.03.2012 18:22 6,1 C 53 % 1009,7 hPa 0,0 l/m 21,2 km/h (4 Bft) N-NO 22 -2,7 C 2,3 C
31.03.2012 18:27 6,1 C 53 % 1009,9 hPa 0,0 l/m 13,7 km/h (3 Bft) N-NO 22 -2,7 C 3,3 C
31.03.2012 18:32 6,1 C 52 % 1010,0 hPa 0,0 l/m 19,1 km/h (3 Bft) N 360 -3,0 C 2,6 C
31.03.2012 18:37 5,9 C 53 % 1010,1 hPa 0,0 l/m 7,6 km/h (2 Bft) N 360 -2,9 C 4,3 C
31.03.2012 18:42 6,1 C 53 % 1010,2 hPa 0,0 l/m 15,1 km/h (3 Bft) N-NW 337 -2,7 C 3,1 C
31.03.2012 18:47 6,1 C 53 % 1010,4 hPa 0,0 l/m 24,8 km/h (4 Bft) N 360 -2,7 C 1,9 C
31.03.2012 18:52 5,9 C 54 % 1010,3 hPa 0,0 l/m 16,2 km/h (3 Bft) N-NW 337 -2,7 C 2,7 C
31.03.2012 18:57 5,9 C 53 % 1010,4 hPa 0,0 l/m 19,1 km/h (3 Bft) N-NO 22 -2,9 C 2,3 C
31.03.2012 19:02 5,9 C 52 % 1010,6 hPa 0,0 l/m 11,2 km/h (2 Bft) N-NO 22 -3,2 C 3,5 C
31.03.2012 19:07 5,8 C 52 % 1010,7 hPa 0,0 l/m 12,6 km/h (3 Bft) N 360 -3,3 C 3,1 C
31.03.2012 19:12 5,8 C 53 % 1010,7 hPa 0,0 l/m 11,2 km/h (2 Bft) NO 45 -3,0 C 3,4 C
31.03.2012 19:17 5,8 C 54 % 1010,9 hPa 0,0 l/m 24,1 km/h (4 Bft) N-NO 22 -2,8 C 1,6 C
31.03.2012 19:22 5,6 C 54 % 1011,0 hPa 0,0 l/m 11,9 km/h (2 Bft) NO 45 -3,0 C 3,0 C
31.03.2012 19:27 5,6 C 55 % 1011,1 hPa 0,0 l/m 21,6 km/h (4 Bft) N-NO 22 -2,7 C 1,6 C
31.03.2012 19:32 5,6 C 54 % 1011,1 hPa 0,0 l/m 13,3 km/h (3 Bft) N 360 -3,0 C 2,8 C
31.03.2012 19:37 5,5 C 54 % 1011,2 hPa 0,0 l/m 19,8 km/h (3 Bft) O-NO 67 -3,1 C 1,7 C
31.03.2012 19:42 5,4 C 54 % 1011,3 hPa 0,0 l/m 23,8 km/h (4 Bft) NO 45 -3,1 C 1,2 C
31.03.2012 19:47 5,3 C 53 % 1011,4 hPa 0,0 l/m 12,6 km/h (3 Bft) NW 315 -3,5 C 2,5 C
31.03.2012 19:52 5,3 C 52 % 1011,6 hPa 0,0 l/m 18,0 km/h (3 Bft) N 360 -3,7 C 1,7 C
31.03.2012 19:57 5,3 C 52 % 1011,7 hPa 0,0 l/m 15,8 km/h (3 Bft) N 360 -3,7 C 2,0 C
31.03.2012 20:02 5,2 C 53 % 1011,8 hPa 0,0 l/m 15,5 km/h (3 Bft) NO 45 -3,6 C 1,9 C
31.03.2012 20:07 5,1 C 53 % 1011,9 hPa 0,0 l/m 9,7 km/h (2 Bft) N-NO 22 -3,7 C 2,8 C
31.03.2012 20:12 5,1 C 53 % 1012,1 hPa 0,0 l/m 14,4 km/h (3 Bft) NO 45 -3,7 C 2,0 C
31.03.2012 20:17 5,1 C 53 % 1012,1 hPa 0,0 l/m 13,3 km/h (3 Bft) N 360 -3,7 C 2,1 C
31.03.2012 20:22 5,0 C 53 % 1012,1 hPa 0,0 l/m 10,1 km/h (2 Bft) N-NO 22 -3,8 C 2,6 C
31.03.2012 20:27 5,0 C 54 % 1012,1 hPa 0,0 l/m 7,2 km/h (2 Bft) N 360 -3,5 C 3,4 C
31.03.2012 20:32 5,0 C 54 % 1012,2 hPa 0,0 l/m 13,3 km/h (3 Bft) NW 315 -3,5 C 2,0 C
31.03.2012 20:37 4,9 C 54 % 1012,4 hPa 0,0 l/m 11,2 km/h (2 Bft) NO 45 -3,6 C 2,3 C
31.03.2012 20:42 4,9 C 54 % 1012,5 hPa 0,0 l/m 10,4 km/h (2 Bft) N-NO 22 -3,6 C 2,5 C
31.03.2012 20:47 4,9 C 54 % 1012,5 hPa 0,0 l/m 6,1 km/h (2 Bft) N-NO 22 -3,6 C 3,6 C
31.03.2012 20:52 4,9 C 55 % 1012,6 hPa 0,0 l/m 10,8 km/h (2 Bft) N 360 -3,4 C 2,4 C
31.03.2012 20:57 4,9 C 55 % 1012,6 hPa 0,0 l/m 8,6 km/h (2 Bft) NO 45 -3,4 C 2,9 C
31.03.2012 21:02 4,8 C 55 % 1012,7 hPa 0,0 l/m 8,6 km/h (2 Bft) NO 45 -3,5 C 2,7 C
31.03.2012 21:07 4,7 C 56 % 1012,7 hPa 0,0 l/m 9,7 km/h (2 Bft) N 360 -3,3 C 2,4 C
31.03.2012 21:12 4,6 C 55 % 1012,8 hPa 0,0 l/m 12,2 km/h (2 Bft) N 360 -3,6 C 1,7 C
31.03.2012 21:17 4,6 C 56 % 1013,0 hPa 0,0 l/m 4,3 km/h (1 Bft) NO 45 -3,4 C 4,6 C
31.03.2012 21:22 4,6 C 56 % 1013,1 hPa 0,0 l/m 4,3 km/h (1 Bft) O-NO 67 -3,4 C 4,6 C
31.03.2012 21:27 4,4 C 57 % 1013,0 hPa 0,0 l/m 0,0 km/h (0 Bft) N-NW 337 -3,4 C 4,4 C
31.03.2012 21:32 4,4 C 57 % 1012,9 hPa 0,0 l/m 4,3 km/h (1 Bft) NO 45 -3,4 C 4,4 C
31.03.2012 21:37 4,3 C 58 % 1013,1 hPa 0,0 l/m 4,7 km/h (1 Bft) N 360 -3,2 C 3,4 C
31.03.2012 21:42 4,2 C 59 % 1013,1 hPa 0,0 l/m 2,2 km/h (1 Bft) W-NW 292 -3,1 C 4,2 C
31.03.2012 21:47 4,1 C 59 % 1013,2 hPa 0,0 l/m 3,2 km/h (1 Bft) W-NW 292 -3,2 C 4,1 C
31.03.2012 21:52 4,1 C 60 % 1013,3 hPa 0,0 l/m 7,2 km/h (2 Bft) NO 45 -3,0 C 2,3 C
31.03.2012 21:57 4,1 C 60 % 1013,4 hPa 0,0 l/m 5,8 km/h (2 Bft) N-NW 337 -3,0 C 2,8 C
31.03.2012 22:02 3,9 C 61 % 1013,4 hPa 0,0 l/m 13,3 km/h (3 Bft) N 360 -2,9 C 0,7 C
31.03.2012 22:07 3,9 C 62 % 1013,4 hPa 0,0 l/m 4,7 km/h (1 Bft) N-NW 337 -2,7 C 3,0 C
31.03.2012 22:12 3,9 C 62 % 1013,5 hPa 0,0 l/m 4,3 km/h (1 Bft) N 360 -2,7 C 3,9 C
31.03.2012 22:17 3,9 C 63 % 1013,6 hPa 0,0 l/m 5,8 km/h (2 Bft) N-NW 337 -2,5 C 2,5 C
31.03.2012 22:22 3,9 C 63 % 1013,7 hPa 0,0 l/m 6,1 km/h (2 Bft) NO 45 -2,5 C 2,4 C
31.03.2012 22:27 3,8 C 63 % 1013,7 hPa 0,0 l/m 6,5 km/h (2 Bft) NO 45 -2,6 C 2,2 C
31.03.2012 22:32 3,8 C 63 % 1013,8 hPa 0,0 l/m 0,0 km/h (0 Bft) N-NW 337 -2,6 C 3,8 C
31.03.2012 22:37 3,7 C 64 % 1013,9 hPa 0,0 l/m 6,1 km/h (2 Bft) W-NW 292 -2,5 C 2,2 C
31.03.2012 22:42 3,6 C 65 % 1014,0 hPa 0,0 l/m 2,9 km/h (1 Bft) N-NO 22 -2,4 C 3,6 C
31.03.2012 22:47 3,5 C 65 % 1014,0 hPa 0,0 l/m 0,0 km/h (0 Bft) N-NO 22 -2,4 C 3,5 C
31.03.2012 22:52 3,5 C 65 % 1014,1 hPa 0,0 l/m 1,4 km/h (1 Bft) N-NW 337 -2,4 C 3,5 C
31.03.2012 22:57 3,4 C 66 % 1014,1 hPa 0,0 l/m 2,5 km/h (1 Bft) NW 315 -2,3 C 3,4 C
31.03.2012 23:02 3,3 C 66 % 1014,2 hPa 0,0 l/m 5,8 km/h (2 Bft) NW 315 -2,4 C 1,8 C
31.03.2012 23:07 3,1 C 67 % 1014,2 hPa 0,0 l/m 2,2 km/h (1 Bft) NW 315 -2,4 C 3,1 C
31.03.2012 23:12 3,1 C 67 % 1014,0 hPa 0,0 l/m 3,6 km/h (1 Bft) W-NW 292 -2,4 C 3,1 C
31.03.2012 23:17 2,9 C 68 % 1014,1 hPa 0,0 l/m 2,5 km/h (1 Bft) N 360 -2,4 C 2,9 C
31.03.2012 23:22 2,9 C 68 % 1014,0 hPa 0,0 l/m 2,5 km/h (1 Bft) W-NW 292 -2,4 C 2,9 C
31.03.2012 23:27 2,7 C 69 % 1014,3 hPa 0,0 l/m 1,4 km/h (1 Bft) N-NW 337 -2,4 C 2,7 C
31.03.2012 23:32 2,6 C 69 % 1014,2 hPa 0,0 l/m 0,0 km/h (0 Bft) NW 315 -2,5 C 2,6 C
31.03.2012 23:37 2,6 C 70 % 1014,2 hPa 0,0 l/m 1,4 km/h (1 Bft) N-NW 337 -2,3 C 2,6 C
31.03.2012 23:42 2,4 C 70 % 1014,4 hPa 0,0 l/m 1,8 km/h (1 Bft) NW 315 -2,5 C 2,4 C
31.03.2012 23:47 2,4 C 70 % 1014,2 hPa 0,0 l/m 0,0 km/h (0 Bft) N-NW 337 -2,5 C 2,4 C
31.03.2012 23:52 2,3 C 71 % 1014,3 hPa 0,0 l/m 2,5 km/h (1 Bft) NW 315 -2,4 C 2,3 C
31.03.2012 23:57 2,2 C 72 % 1014,4 hPa 0,0 l/m 0,0 km/h (0 Bft) N-NW 337 -2,3 C 2,2 C
_ Min-Zeit 23:57 18:12 08:17 - 21:27 - - 20:22 15:47
Minimum _ 2,2 C 52 % 1001,5 hPa - 0,0 km/h (0 Bft) - - -3,8 C -1,5 C
_ Max-Zeit 00:02 05:57 23:42 09:32 01:42 - - 00:02 12:57
Maximum _ 8,2 C 85 % 1014,4 hPa 0,5 l/m 36,4 km/h
W (5 Bft)
- - 5,0 C 7,1 C
Durchschnitt _ 6,1 C 69 % 1006,7 hPa #1,0 l/m 17,2 km/h (3 Bft) W-NW - 0,8 C 3,1 C
(c) by David Heller